AirNav   Air Wisconsin Up To $57,000 Bonus
 
 2078 users online  

HI38 The Queen's Medical Center Heliport
Honolulu, Hawaii, USA

GOING TO HONOLULU?


FAA INFORMATION EFFECTIVE 02 JANUARY 2020

Location

FAA Identifier: HI38
Lat/Long: 21-18-29.4300N 157-51-13.0500W
21-18.490500N 157-51.217500W
21.3081750,-157.8536250
(estimated)
Elevation: 102 ft. / 31 m (estimated)
Variation: 11E (1985)
Time zone: UTC -10 (year round; does not observe DST)
Zip code: 96813

Heliport Operations

Heliport use: Private use. Permission required prior to landing
Activation date: 01/1978
Control tower: no
ARTCC: HONOLULU CONTROL FACILITY CENTER
FSS: HONOLULU FLIGHT SERVICE STATION
Attendance: CONTINUOUS
Wind indicator: yes
Segmented circle: no
Lights: FOR PERIMETER LGTS CALL 808-547-4311.

Heliport Communications

WX ASOS at HNL (4 nm W): PHONE 808-836-0449
WX ASOS at JRF (12 nm W): 119.8 (808-673-7454)

Nearby radio navigation aids

VOR radial/distance  VOR name  Freq  Var
HNLr079/4.3HONOLULU VORTAC114.8011E
CKHr276/8.8KOKO HEAD VORTAC113.9011E
MKKr274/39.7MOLOKAI VORTAC116.1011E

 
NDB name  Hdg/Dist  Freq  Var  ID
EWABE084/11.024211EHN .... -.

Heliport Services

Runway Information

Helipad H1

Dimensions: 61 x 63 ft. / 19 x 19 m
Surface: concrete
Runway edge lights: PERI
Latitude: 21-18.490500N
Longitude: 157-51.217500W
Elevation: 102.0 ft.
Traffic pattern: leftleft

Heliport Ownership and Management from official FAA records

Ownership: Privately-owned
Owner: THE QUEEN'S MEDICAL CENTER
1301 PUNCHBOWL ST
HONOLULU, HI 96813
Phone 808-547-4509
Manager: GARY DIAS
1301 PUNCHBOWL ST
HONOLULU, HI 96813
Phone 808-547-4509

Additional Remarks

A52-H1 LGTD/MKD BLDG 215' FM PAD.
FOR CD CTC HCF CENTER AT 808-840-6262

Instrument Procedures

There are no published instrument procedures at HI38.

Some nearby airports with instrument procedures:

PHNL - Daniel K Inouye International Airport (4 nm W)
PHJR - Kalaeloa Airport (John Rodgers Field) (12 nm W)
PHMK - Molokai Airport (43 nm E)
PHLU - Kalaupapa Airport (50 nm E)
PHNY - Lanai Airport (59 nm SE)
 
Loc | Ops | Rwys | IFR | FBO | Links
Com | Nav | Svcs | Stats | Notes
Area around HI38 (The Queen's Medical Center Heliport)
 
Road maps at: MapQuest Bing Google
 
Aerial photo
No photo
 
Sectional chart

 
Airport distance calculator
Flying to The Queen's Medical Center Heliport? Find the distance to fly.

From to HI38

Sunrise and sunset
Times for 27-Jan-2020
 Local
(UTC-10)
 Zulu
(UTC)
Morning civil twilight06:4816:48
Sunrise07:1117:11
Sunset18:1704:17
Evening civil twilight18:4104:41

Current date and time
Zulu (UTC)  27-Jan-2020 19:43:45
Local (UTC-10)  27-Jan-2020 09:43:45
 
METAR
PHNL 
6nm W 
271853Z 07005KT 10SM FEW025 SCT045 24/17 A3016 RMK AO2 SLP214 T02440172
PHNG 
9nm NE 
271857Z 11009KT 10SM FEW024 24/17 A3014 RMK AO2 SLP202 T02440172 $
PHJR 
12nm W 
271753Z 04003KT 10SM FEW041 19/17 A3015 RMK AO2 SLP217 T01890172 10211 20178 53018
PHHI 
13nm NW 
271902Z AUTO 00000KT 10SM FEW030 BKN044 23/19 A3017 RMK AO2 RAE02 SLP210 $
TAF
PHNL 
6nm W 
262141Z 2622/2724 08010G16KT P6SM FEW025 SCT050 FM270400 06006KT P6SM FEW025 SCT050 FM270800 34004KT P6SM FEW025
PHNG 
9nm NE 
2621/2721 08008KT SCT025 SCT040 QNH3004INS TEMPO 2621/2603 11010G18KT BKN025 T26/2700Z T22/2714Z
NOTAMs
Click for the latest NOTAMs
NOTAMs are issued by the DoD/FAA and will open in a separate window not controlled by AirNav.

 

 
 

Would you like to see your business listed on this page?

 If your business provides an interesting product or service to pilots, flight crews, aircraft, or users of the The Queen's Medical Center Heliport, you should consider listing it here.  To start the listing process, click on the button below
 
Add a business
 

Other Pages about The Queen's Medical Center Heliport

Update a link
 
Copyright © AirNav, LLC. All rights reserved. Privacy Policy  Contact